sensor_id;sensor_type;location;lat;lon;timestamp;P1;durP1;ratioP1;P2;durP2;ratioP2
5539;SDS011;2792;52.452;9.752;2023-07-24T00:00:11;3.37;;;3.07;;
5539;SDS011;2792;52.452;9.752;2023-07-24T00:02:38;4.13;;;2.90;;
5539;SDS011;2792;52.452;9.752;2023-07-24T00:05:06;3.43;;;3.13;;
5539;SDS011;2792;52.452;9.752;2023-07-24T00:07:35;3.40;;;2.87;;
5539;SDS011;2792;52.452;9.752;2023-07-24T00:10:01;3.90;;;3.00;;
5539;SDS011;2792;52.452;9.752;2023-07-24T00:12:28;3.60;;;3.10;;
5539;SDS011;2792;52.452;9.752;2023-07-24T00:14:55;4.30;;;2.70;;
5539;SDS011;2792;52.452;9.752;2023-07-24T00:17:21;3.40;;;3.10;;
5539;SDS011;2792;52.452;9.752;2023-07-24T00:19:48;3.63;;;3.33;;
5539;SDS011;2792;52.452;9.752;2023-07-24T00:22:17;3.53;;;3.00;;
5539;SDS011;2792;52.452;9.752;2023-07-24T00:24:44;3.20;;;2.83;;
5539;SDS011;2792;52.452;9.752;2023-07-24T00:27:10;3.70;;;3.40;;
5539;SDS011;2792;52.452;9.752;2023-07-24T00:29:36;3.57;;;2.77;;
5539;SDS011;2792;52.452;9.752;2023-07-24T00:32:03;3.70;;;3.20;;
5539;SDS011;2792;52.452;9.752;2023-07-24T00:34:30;4.07;;;3.67;;
5539;SDS011;2792;52.452;9.752;2023-07-24T00:36:57;3.83;;;3.43;;
5539;SDS011;2792;52.452;9.752;2023-07-24T00:39:25;3.60;;;3.30;;
5539;SDS011;2792;52.452;9.752;2023-07-24T00:41:53;3.33;;;3.03;;
5539;SDS011;2792;52.452;9.752;2023-07-24T00:44:19;4.10;;;3.70;;
5539;SDS011;2792;52.452;9.752;2023-07-24T00:46:46;8.13;;;3.93;;
5539;SDS011;2792;52.452;9.752;2023-07-24T00:49:13;4.57;;;3.87;;
5539;SDS011;2792;52.452;9.752;2023-07-24T00:51:39;4.37;;;3.97;;
5539;SDS011;2792;52.452;9.752;2023-07-24T00:54:06;4.80;;;4.17;;
5539;SDS011;2792;52.452;9.752;2023-07-24T00:56:34;4.40;;;4.00;;
5539;SDS011;2792;52.452;9.752;2023-07-24T00:59:01;5.70;;;4.40;;
5539;SDS011;2792;52.452;9.752;2023-07-24T01:01:27;4.40;;;4.00;;
5539;SDS011;2792;52.452;9.752;2023-07-24T01:03:54;4.50;;;4.07;;
5539;SDS011;2792;52.452;9.752;2023-07-24T01:06:23;5.10;;;4.60;;
5539;SDS011;2792;52.452;9.752;2023-07-24T01:08:49;4.67;;;4.27;;
5539;SDS011;2792;52.452;9.752;2023-07-24T01:11:18;5.07;;;4.67;;
5539;SDS011;2792;52.452;9.752;2023-07-24T01:13:56;5.10;;;4.20;;
5539;SDS011;2792;52.452;9.752;2023-07-24T01:16:25;4.17;;;3.77;;
5539;SDS011;2792;52.452;9.752;2023-07-24T01:18:52;4.77;;;4.37;;
5539;SDS011;2792;52.452;9.752;2023-07-24T01:21:23;5.13;;;4.63;;
5539;SDS011;2792;52.452;9.752;2023-07-24T01:23:58;4.67;;;4.27;;
5539;SDS011;2792;52.452;9.752;2023-07-24T01:26:31;5.20;;;4.70;;
5539;SDS011;2792;52.452;9.752;2023-07-24T01:28:58;5.63;;;5.00;;
5539;SDS011;2792;52.452;9.752;2023-07-24T01:31:24;5.40;;;4.90;;
5539;SDS011;2792;52.452;9.752;2023-07-24T01:33:51;4.80;;;4.30;;
5539;SDS011;2792;52.452;9.752;2023-07-24T01:36:17;5.33;;;4.83;;
5539;SDS011;2792;52.452;9.752;2023-07-24T01:38:44;5.40;;;4.80;;
5539;SDS011;2792;52.452;9.752;2023-07-24T01:41:12;6.27;;;5.63;;
5539;SDS011;2792;52.452;9.752;2023-07-24T01:43:40;8.40;;;5.37;;
5539;SDS011;2792;52.452;9.752;2023-07-24T01:46:06;7.63;;;5.63;;
5539;SDS011;2792;52.452;9.752;2023-07-24T01:48:33;6.00;;;5.40;;
5539;SDS011;2792;52.452;9.752;2023-07-24T01:51:00;7.90;;;6.60;;
5539;SDS011;2792;52.452;9.752;2023-07-24T01:53:26;6.30;;;5.57;;
5539;SDS011;2792;52.452;9.752;2023-07-24T01:55:53;9.23;;;6.10;;
5539;SDS011;2792;52.452;9.752;2023-07-24T01:58:19;6.37;;;5.73;;
5539;SDS011;2792;52.452;9.752;2023-07-24T02:00:47;6.70;;;6.07;;
5539;SDS011;2792;52.452;9.752;2023-07-24T02:03:13;6.80;;;5.83;;
5539;SDS011;2792;52.452;9.752;2023-07-24T02:05:40;6.23;;;5.63;;
5539;SDS011;2792;52.452;9.752;2023-07-24T02:08:06;7.13;;;6.30;;
5539;SDS011;2792;52.452;9.752;2023-07-24T02:10:36;7.10;;;5.83;;
5539;SDS011;2792;52.452;9.752;2023-07-24T02:13:03;6.77;;;6.10;;
5539;SDS011;2792;52.452;9.752;2023-07-24T02:15:32;8.40;;;7.07;;
5539;SDS011;2792;52.452;9.752;2023-07-24T02:18:00;7.30;;;6.60;;
5539;SDS011;2792;52.452;9.752;2023-07-24T02:20:27;7.43;;;6.73;;
5539;SDS011;2792;52.452;9.752;2023-07-24T02:22:53;7.53;;;6.50;;
5539;SDS011;2792;52.452;9.752;2023-07-24T02:25:20;7.83;;;6.87;;
5539;SDS011;2792;52.452;9.752;2023-07-24T02:27:46;8.00;;;6.97;;
5539;SDS011;2792;52.452;9.752;2023-07-24T02:30:13;7.50;;;6.63;;
5539;SDS011;2792;52.452;9.752;2023-07-24T02:32:39;7.57;;;6.77;;
5539;SDS011;2792;52.452;9.752;2023-07-24T02:35:07;6.90;;;6.30;;
5539;SDS011;2792;52.452;9.752;2023-07-24T02:37:34;8.83;;;6.90;;
5539;SDS011;2792;52.452;9.752;2023-07-24T02:40:00;8.33;;;7.50;;
5539;SDS011;2792;52.452;9.752;2023-07-24T02:42:27;9.50;;;7.67;;
5539;SDS011;2792;52.452;9.752;2023-07-24T02:44:53;8.83;;;7.80;;
5539;SDS011;2792;52.452;9.752;2023-07-24T02:47:20;8.30;;;7.07;;
5539;SDS011;2792;52.452;9.752;2023-07-24T02:49:46;8.00;;;7.20;;
5539;SDS011;2792;52.452;9.752;2023-07-24T02:52:14;7.63;;;6.93;;
5539;SDS011;2792;52.452;9.752;2023-07-24T02:54:41;9.10;;;7.37;;
5539;SDS011;2792;52.452;9.752;2023-07-24T02:57:07;7.63;;;6.83;;
5539;SDS011;2792;52.452;9.752;2023-07-24T02:59:34;11.03;;;7.03;;
5539;SDS011;2792;52.452;9.752;2023-07-24T03:02:00;11.00;;;7.47;;
5539;SDS011;2792;52.452;9.752;2023-07-24T03:04:27;8.67;;;7.03;;
5539;SDS011;2792;52.452;9.752;2023-07-24T03:06:53;7.80;;;7.00;;
5539;SDS011;2792;52.452;9.752;2023-07-24T03:09:21;7.93;;;7.13;;
5539;SDS011;2792;52.452;9.752;2023-07-24T03:11:47;8.70;;;6.93;;
5539;SDS011;2792;52.452;9.752;2023-07-24T03:14:14;16.77;;;7.70;;
5539;SDS011;2792;52.452;9.752;2023-07-24T03:16:39;11.40;;;7.20;;
5539;SDS011;2792;52.452;9.752;2023-07-24T03:19:06;9.30;;;7.40;;
5539;SDS011;2792;52.452;9.752;2023-07-24T03:21:32;7.40;;;6.70;;
5539;SDS011;2792;52.452;9.752;2023-07-24T03:23:59;8.27;;;6.53;;
5539;SDS011;2792;52.452;9.752;2023-07-24T03:26:27;7.63;;;6.93;;
5539;SDS011;2792;52.452;9.752;2023-07-24T03:28:53;7.27;;;6.40;;
5539;SDS011;2792;52.452;9.752;2023-07-24T03:31:20;7.17;;;6.47;;
5539;SDS011;2792;52.452;9.752;2023-07-24T03:33:46;8.87;;;6.10;;
5539;SDS011;2792;52.452;9.752;2023-07-24T03:36:13;8.07;;;6.10;;
5539;SDS011;2792;52.452;9.752;2023-07-24T03:38:39;6.00;;;5.40;;
5539;SDS011;2792;52.452;9.752;2023-07-24T03:41:05;7.80;;;6.03;;
5539;SDS011;2792;52.452;9.752;2023-07-24T03:43:33;7.20;;;5.50;;
5539;SDS011;2792;52.452;9.752;2023-07-24T03:46:00;6.00;;;5.40;;
5539;SDS011;2792;52.452;9.752;2023-07-24T03:48:26;5.83;;;5.23;;
5539;SDS011;2792;52.452;9.752;2023-07-24T03:50:57;6.93;;;4.97;;
5539;SDS011;2792;52.452;9.752;2023-07-24T03:53:24;6.90;;;5.70;;
5539;SDS011;2792;52.452;9.752;2023-07-24T03:55:50;7.20;;;5.30;;
5539;SDS011;2792;52.452;9.752;2023-07-24T03:58:17;5.97;;;5.37;;
5539;SDS011;2792;52.452;9.752;2023-07-24T04:00:45;6.83;;;4.70;;
5539;SDS011;2792;52.452;9.752;2023-07-24T04:03:12;6.13;;;5.10;;
5539;SDS011;2792;52.452;9.752;2023-07-24T04:05:38;7.27;;;4.83;;
5539;SDS011;2792;52.452;9.752;2023-07-24T04:08:05;6.00;;;5.33;;
5539;SDS011;2792;52.452;9.752;2023-07-24T04:10:31;5.10;;;4.50;;
5539;SDS011;2792;52.452;9.752;2023-07-24T04:12:58;5.13;;;4.43;;
5539;SDS011;2792;52.452;9.752;2023-07-24T04:15:24;4.53;;;4.03;;
5539;SDS011;2792;52.452;9.752;2023-07-24T04:17:52;4.27;;;3.87;;
5539;SDS011;2792;52.452;9.752;2023-07-24T04:20:19;4.27;;;3.87;;
5539;SDS011;2792;52.452;9.752;2023-07-24T04:22:45;4.30;;;3.73;;
5539;SDS011;2792;52.452;9.752;2023-07-24T04:25:12;4.80;;;4.20;;
5539;SDS011;2792;52.452;9.752;2023-07-24T04:27:38;3.97;;;3.57;;
5539;SDS011;2792;52.452;9.752;2023-07-24T04:30:05;5.23;;;4.00;;
5539;SDS011;2792;52.452;9.752;2023-07-24T04:32:32;4.27;;;3.70;;
5539;SDS011;2792;52.452;9.752;2023-07-24T04:35:00;4.97;;;3.90;;
5539;SDS011;2792;52.452;9.752;2023-07-24T04:37:27;3.50;;;3.20;;
5539;SDS011;2792;52.452;9.752;2023-07-24T04:39:53;4.63;;;3.07;;
5539;SDS011;2792;52.452;9.752;2023-07-24T04:42:20;5.20;;;3.30;;
5539;SDS011;2792;52.452;9.752;2023-07-24T04:44:46;4.10;;;3.70;;
5539;SDS011;2792;52.452;9.752;2023-07-24T04:47:15;4.13;;;3.50;;
5539;SDS011;2792;52.452;9.752;2023-07-24T04:49:41;9.20;;;3.63;;
5539;SDS011;2792;52.452;9.752;2023-07-24T04:52:09;2.77;;;2.57;;
5539;SDS011;2792;52.452;9.752;2023-07-24T04:54:35;4.83;;;3.30;;
5539;SDS011;2792;52.452;9.752;2023-07-24T04:57:02;3.63;;;3.13;;
5539;SDS011;2792;52.452;9.752;2023-07-24T04:59:29;3.63;;;3.17;;
5539;SDS011;2792;52.452;9.752;2023-07-24T05:01:56;4.20;;;3.20;;
5539;SDS011;2792;52.452;9.752;2023-07-24T05:04:22;6.10;;;2.83;;
5539;SDS011;2792;52.452;9.752;2023-07-24T05:06:49;3.90;;;2.60;;
5539;SDS011;2792;52.452;9.752;2023-07-24T05:09:16;3.30;;;2.27;;
5539;SDS011;2792;52.452;9.752;2023-07-24T05:11:43;4.63;;;2.53;;
5539;SDS011;2792;52.452;9.752;2023-07-24T05:14:10;3.43;;;2.80;;
5539;SDS011;2792;52.452;9.752;2023-07-24T05:16:36;3.13;;;2.33;;
5539;SDS011;2792;52.452;9.752;2023-07-24T05:19:03;3.50;;;2.57;;
5539;SDS011;2792;52.452;9.752;2023-07-24T05:21:29;2.90;;;2.60;;
5539;SDS011;2792;52.452;9.752;2023-07-24T05:23:56;4.97;;;2.70;;
5539;SDS011;2792;52.452;9.752;2023-07-24T05:26:24;4.57;;;2.97;;
5539;SDS011;2792;52.452;9.752;2023-07-24T05:28:50;2.97;;;2.67;;
5539;SDS011;2792;52.452;9.752;2023-07-24T05:31:17;2.43;;;2.23;;
5539;SDS011;2792;52.452;9.752;2023-07-24T05:33:44;2.90;;;2.50;;
5539;SDS011;2792;52.452;9.752;2023-07-24T05:36:10;3.10;;;2.57;;
5539;SDS011;2792;52.452;9.752;2023-07-24T05:38:37;3.30;;;2.20;;
5539;SDS011;2792;52.452;9.752;2023-07-24T05:41:03;4.83;;;2.60;;
5539;SDS011;2792;52.452;9.752;2023-07-24T05:43:31;5.90;;;2.93;;
5539;SDS011;2792;52.452;9.752;2023-07-24T05:45:58;3.00;;;2.47;;
5539;SDS011;2792;52.452;9.752;2023-07-24T05:48:25;2.47;;;2.03;;
5539;SDS011;2792;52.452;9.752;2023-07-24T05:50:51;3.60;;;2.13;;
5539;SDS011;2792;52.452;9.752;2023-07-24T05:53:18;3.53;;;2.20;;
5539;SDS011;2792;52.452;9.752;2023-07-24T05:55:44;3.10;;;2.33;;
5539;SDS011;2792;52.452;9.752;2023-07-24T05:58:11;4.97;;;2.43;;
5539;SDS011;2792;52.452;9.752;2023-07-24T06:00:39;3.53;;;2.50;;
5539;SDS011;2792;52.452;9.752;2023-07-24T06:03:05;5.50;;;3.27;;
5539;SDS011;2792;52.452;9.752;2023-07-24T06:05:32;4.30;;;2.60;;
5539;SDS011;2792;52.452;9.752;2023-07-24T06:07:58;3.80;;;2.73;;
5539;SDS011;2792;52.452;9.752;2023-07-24T06:10:25;3.03;;;2.60;;
5539;SDS011;2792;52.452;9.752;2023-07-24T06:12:51;2.97;;;2.63;;
5539;SDS011;2792;52.452;9.752;2023-07-24T06:15:18;4.23;;;2.63;;
5539;SDS011;2792;52.452;9.752;2023-07-24T06:17:46;2.57;;;2.37;;
5539;SDS011;2792;52.452;9.752;2023-07-24T06:20:12;3.73;;;2.43;;
5539;SDS011;2792;52.452;9.752;2023-07-24T06:22:39;6.10;;;2.60;;
5539;SDS011;2792;52.452;9.752;2023-07-24T06:25:05;10.03;;;3.00;;
5539;SDS011;2792;52.452;9.752;2023-07-24T06:27:32;4.97;;;2.30;;
5539;SDS011;2792;52.452;9.752;2023-07-24T06:29:59;7.37;;;2.60;;
5539;SDS011;2792;52.452;9.752;2023-07-24T06:32:25;4.87;;;2.83;;
5539;SDS011;2792;52.452;9.752;2023-07-24T06:34:53;2.63;;;2.20;;
5539;SDS011;2792;52.452;9.752;2023-07-24T06:37:20;2.83;;;2.50;;
5539;SDS011;2792;52.452;9.752;2023-07-24T06:39:46;4.40;;;2.83;;
5539;SDS011;2792;52.452;9.752;2023-07-24T06:42:13;2.40;;;2.20;;
5539;SDS011;2792;52.452;9.752;2023-07-24T06:44:39;3.50;;;2.03;;
5539;SDS011;2792;52.452;9.752;2023-07-24T06:47:06;6.20;;;2.47;;
5539;SDS011;2792;52.452;9.752;2023-07-24T06:49:32;6.20;;;2.90;;
5539;SDS011;2792;52.452;9.752;2023-07-24T06:52:00;3.00;;;2.63;;
5539;SDS011;2792;52.452;9.752;2023-07-24T06:54:26;3.33;;;2.20;;
5539;SDS011;2792;52.452;9.752;2023-07-24T06:56:53;2.70;;;2.20;;
5539;SDS011;2792;52.452;9.752;2023-07-24T06:59:19;6.60;;;3.00;;
5539;SDS011;2792;52.452;9.752;2023-07-24T07:01:46;6.20;;;3.30;;
5539;SDS011;2792;52.452;9.752;2023-07-24T07:04:12;4.83;;;2.80;;
5539;SDS011;2792;52.452;9.752;2023-07-24T07:06:39;5.20;;;2.90;;
5539;SDS011;2792;52.452;9.752;2023-07-24T07:09:07;9.73;;;3.90;;
5539;SDS011;2792;52.452;9.752;2023-07-24T07:11:33;6.23;;;3.70;;
5539;SDS011;2792;52.452;9.752;2023-07-24T07:14:00;7.87;;;3.60;;
5539;SDS011;2792;52.452;9.752;2023-07-24T07:16:26;6.53;;;4.30;;
5539;SDS011;2792;52.452;9.752;2023-07-24T07:18:53;8.53;;;4.23;;
5539;SDS011;2792;52.452;9.752;2023-07-24T07:21:19;15.87;;;5.10;;
5539;SDS011;2792;52.452;9.752;2023-07-24T07:23:45;7.70;;;4.50;;
5539;SDS011;2792;52.452;9.752;2023-07-24T07:26:13;16.30;;;4.53;;
5539;SDS011;2792;52.452;9.752;2023-07-24T07:28:40;10.23;;;5.10;;
5539;SDS011;2792;52.452;9.752;2023-07-24T07:31:06;7.47;;;4.90;;
5539;SDS011;2792;52.452;9.752;2023-07-24T07:33:33;8.90;;;5.27;;
5539;SDS011;2792;52.452;9.752;2023-07-24T07:35:59;7.50;;;3.80;;
5539;SDS011;2792;52.452;9.752;2023-07-24T07:38:26;7.37;;;3.50;;
5539;SDS011;2792;52.452;9.752;2023-07-24T07:40:52;7.00;;;4.70;;
5539;SDS011;2792;52.452;9.752;2023-07-24T07:43:20;10.07;;;5.70;;
5539;SDS011;2792;52.452;9.752;2023-07-24T07:45:47;9.70;;;5.20;;
5539;SDS011;2792;52.452;9.752;2023-07-24T07:48:13;7.80;;;4.20;;
5539;SDS011;2792;52.452;9.752;2023-07-24T07:50:40;8.93;;;4.90;;
5539;SDS011;2792;52.452;9.752;2023-07-24T07:53:06;9.93;;;5.60;;
5539;SDS011;2792;52.452;9.752;2023-07-24T07:55:33;8.83;;;5.57;;
5539;SDS011;2792;52.452;9.752;2023-07-24T07:57:59;8.10;;;5.20;;
5539;SDS011;2792;52.452;9.752;2023-07-24T08:00:27;13.37;;;5.70;;
5539;SDS011;2792;52.452;9.752;2023-07-24T08:02:54;8.90;;;6.00;;
5539;SDS011;2792;52.452;9.752;2023-07-24T08:05:20;12.33;;;4.83;;
5539;SDS011;2792;52.452;9.752;2023-07-24T08:07:46;9.80;;;5.03;;
5539;SDS011;2792;52.452;9.752;2023-07-24T08:10:13;10.00;;;5.70;;
5539;SDS011;2792;52.452;9.752;2023-07-24T08:12:40;6.67;;;4.93;;
5539;SDS011;2792;52.452;9.752;2023-07-24T08:15:07;7.47;;;4.80;;
5539;SDS011;2792;52.452;9.752;2023-07-24T08:17:36;9.90;;;5.10;;
5539;SDS011;2792;52.452;9.752;2023-07-24T08:20:03;7.53;;;4.83;;
5539;SDS011;2792;52.452;9.752;2023-07-24T08:22:30;4.83;;;4.00;;
5539;SDS011;2792;52.452;9.752;2023-07-24T08:24:56;7.30;;;4.20;;
5539;SDS011;2792;52.452;9.752;2023-07-24T08:27:23;7.67;;;3.90;;
5539;SDS011;2792;52.452;9.752;2023-07-24T08:29:50;7.77;;;3.87;;
5539;SDS011;2792;52.452;9.752;2023-07-24T08:32:17;6.70;;;3.80;;
5539;SDS011;2792;52.452;9.752;2023-07-24T08:34:45;4.80;;;3.50;;
5539;SDS011;2792;52.452;9.752;2023-07-24T08:37:11;5.30;;;3.40;;
5539;SDS011;2792;52.452;9.752;2023-07-24T08:39:38;4.87;;;4.10;;
5539;SDS011;2792;52.452;9.752;2023-07-24T08:42:08;4.60;;;4.10;;
5539;SDS011;2792;52.452;9.752;2023-07-24T08:44:35;7.03;;;3.90;;
5539;SDS011;2792;52.452;9.752;2023-07-24T08:47:03;5.63;;;4.13;;
5539;SDS011;2792;52.452;9.752;2023-07-24T08:49:31;3.90;;;3.50;;
5539;SDS011;2792;52.452;9.752;2023-07-24T08:52:00;6.03;;;3.47;;
5539;SDS011;2792;52.452;9.752;2023-07-24T08:54:27;5.57;;;4.57;;
5539;SDS011;2792;52.452;9.752;2023-07-24T08:56:53;5.57;;;4.47;;
5539;SDS011;2792;52.452;9.752;2023-07-24T08:59:20;8.23;;;4.97;;
5539;SDS011;2792;52.452;9.752;2023-07-24T09:01:46;5.73;;;3.90;;
5539;SDS011;2792;52.452;9.752;2023-07-24T09:04:13;6.23;;;3.63;;
5539;SDS011;2792;52.452;9.752;2023-07-24T09:06:39;4.70;;;4.20;;
5539;SDS011;2792;52.452;9.752;2023-07-24T09:09:13;4.70;;;4.20;;
5539;SDS011;2792;52.452;9.752;2023-07-24T09:11:46;5.33;;;4.83;;
5539;SDS011;2792;52.452;9.752;2023-07-24T09:14:19;6.50;;;4.53;;
5539;SDS011;2792;52.452;9.752;2023-07-24T09:16:46;6.33;;;4.50;;
5539;SDS011;2792;52.452;9.752;2023-07-24T09:19:16;5.80;;;5.07;;
5539;SDS011;2792;52.452;9.752;2023-07-24T09:21:43;5.40;;;4.90;;
5539;SDS011;2792;52.452;9.752;2023-07-24T09:24:11;6.27;;;5.67;;
5539;SDS011;2792;52.452;9.752;2023-07-24T09:26:46;5.53;;;5.03;;
5539;SDS011;2792;52.452;9.752;2023-07-24T09:29:14;7.70;;;5.53;;
5539;SDS011;2792;52.452;9.752;2023-07-24T09:31:40;7.23;;;5.57;;
5539;SDS011;2792;52.452;9.752;2023-07-24T09:34:13;5.77;;;5.13;;
5539;SDS011;2792;52.452;9.752;2023-07-24T09:36:40;5.57;;;4.97;;
5539;SDS011;2792;52.452;9.752;2023-07-24T09:39:07;5.13;;;4.63;;
5539;SDS011;2792;52.452;9.752;2023-07-24T09:41:37;6.70;;;5.27;;
5539;SDS011;2792;52.452;9.752;2023-07-24T09:44:04;6.10;;;5.40;;
5539;SDS011;2792;52.452;9.752;2023-07-24T09:46:30;6.20;;;5.60;;
5539;SDS011;2792;52.452;9.752;2023-07-24T09:48:57;10.07;;;5.23;;
5539;SDS011;2792;52.452;9.752;2023-07-24T09:51:24;5.87;;;5.30;;
5539;SDS011;2792;52.452;9.752;2023-07-24T09:53:52;7.13;;;5.20;;
5539;SDS011;2792;52.452;9.752;2023-07-24T09:56:21;5.43;;;4.93;;
5539;SDS011;2792;52.452;9.752;2023-07-24T09:58:50;8.70;;;6.10;;
5539;SDS011;2792;52.452;9.752;2023-07-24T10:01:20;10.87;;;5.70;;
5539;SDS011;2792;52.452;9.752;2023-07-24T10:03:47;5.57;;;5.07;;
5539;SDS011;2792;52.452;9.752;2023-07-24T10:06:14;7.23;;;5.53;;
5539;SDS011;2792;52.452;9.752;2023-07-24T10:08:42;5.63;;;5.10;;
5539;SDS011;2792;52.452;9.752;2023-07-24T10:11:09;6.30;;;4.53;;
5539;SDS011;2792;52.452;9.752;2023-07-24T10:13:37;9.10;;;6.77;;
5539;SDS011;2792;52.452;9.752;2023-07-24T10:16:05;5.63;;;5.03;;
5539;SDS011;2792;52.452;9.752;2023-07-24T10:18:33;5.83;;;5.30;;
5539;SDS011;2792;52.452;9.752;2023-07-24T10:21:00;5.10;;;4.60;;
5539;SDS011;2792;52.452;9.752;2023-07-24T10:23:28;5.77;;;5.23;;
5539;SDS011;2792;52.452;9.752;2023-07-24T10:25:54;6.30;;;5.70;;
5539;SDS011;2792;52.452;9.752;2023-07-24T10:28:29;5.90;;;5.30;;
5539;SDS011;2792;52.452;9.752;2023-07-24T10:30:56;5.93;;;5.33;;
5539;SDS011;2792;52.452;9.752;2023-07-24T10:33:24;5.87;;;5.10;;
5539;SDS011;2792;52.452;9.752;2023-07-24T10:35:53;6.10;;;5.30;;
5539;SDS011;2792;52.452;9.752;2023-07-24T10:38:31;7.70;;;4.80;;
5539;SDS011;2792;52.452;9.752;2023-07-24T10:41:01;5.53;;;5.03;;
5539;SDS011;2792;52.452;9.752;2023-07-24T10:43:28;5.60;;;4.53;;
5539;SDS011;2792;52.452;9.752;2023-07-24T10:45:55;5.77;;;4.33;;
5539;SDS011;2792;52.452;9.752;2023-07-24T10:48:24;6.83;;;4.80;;
5539;SDS011;2792;52.452;9.752;2023-07-24T10:50:52;5.27;;;4.77;;
5539;SDS011;2792;52.452;9.752;2023-07-24T10:53:19;6.80;;;5.07;;
5539;SDS011;2792;52.452;9.752;2023-07-24T10:55:47;6.27;;;4.63;;
5539;SDS011;2792;52.452;9.752;2023-07-24T10:58:15;7.50;;;4.80;;
5539;SDS011;2792;52.452;9.752;2023-07-24T11:00:42;5.10;;;4.60;;
5539;SDS011;2792;52.452;9.752;2023-07-24T11:03:09;5.00;;;4.50;;
5539;SDS011;2792;52.452;9.752;2023-07-24T11:05:40;16.33;;;4.87;;
5539;SDS011;2792;52.452;9.752;2023-07-24T11:08:10;5.23;;;4.60;;
5539;SDS011;2792;52.452;9.752;2023-07-24T11:10:43;5.73;;;5.23;;
5539;SDS011;2792;52.452;9.752;2023-07-24T11:13:10;4.70;;;4.03;;
5539;SDS011;2792;52.452;9.752;2023-07-24T11:15:37;6.43;;;5.57;;
5539;SDS011;2792;52.452;9.752;2023-07-24T11:18:04;6.50;;;5.17;;
5539;SDS011;2792;52.452;9.752;2023-07-24T11:20:33;5.87;;;5.27;;
5539;SDS011;2792;52.452;9.752;2023-07-24T11:23:04;8.30;;;5.97;;
5539;SDS011;2792;52.452;9.752;2023-07-24T11:25:31;6.23;;;5.63;;
5539;SDS011;2792;52.452;9.752;2023-07-24T11:27:57;3.70;;;2.90;;
5539;SDS011;2792;52.452;9.752;2023-07-24T11:30:24;2.43;;;2.23;;
5539;SDS011;2792;52.452;9.752;2023-07-24T11:32:51;5.00;;;2.17;;
5539;SDS011;2792;52.452;9.752;2023-07-24T11:35:18;3.60;;;1.83;;
5539;SDS011;2792;52.452;9.752;2023-07-24T11:37:46;1.67;;;1.57;;
5539;SDS011;2792;52.452;9.752;2023-07-24T11:40:14;2.30;;;1.97;;
5539;SDS011;2792;52.452;9.752;2023-07-24T11:42:42;8.57;;;3.10;;
5539;SDS011;2792;52.452;9.752;2023-07-24T11:45:09;11.83;;;3.90;;
5539;SDS011;2792;52.452;9.752;2023-07-24T11:47:41;4.90;;;3.37;;
5539;SDS011;2792;52.452;9.752;2023-07-24T11:50:10;4.90;;;4.10;;
5539;SDS011;2792;52.452;9.752;2023-07-24T11:52:38;6.63;;;3.90;;
5539;SDS011;2792;52.452;9.752;2023-07-24T11:55:06;4.80;;;3.90;;
5539;SDS011;2792;52.452;9.752;2023-07-24T11:57:34;5.03;;;4.53;;
5539;SDS011;2792;52.452;9.752;2023-07-24T12:00:01;5.30;;;4.27;;
5539;SDS011;2792;52.452;9.752;2023-07-24T12:02:29;5.03;;;4.03;;
5539;SDS011;2792;52.452;9.752;2023-07-24T12:04:58;4.70;;;4.20;;
5539;SDS011;2792;52.452;9.752;2023-07-24T12:07:31;13.73;;;5.57;;
5539;SDS011;2792;52.452;9.752;2023-07-24T12:09:59;6.43;;;5.70;;
5539;SDS011;2792;52.452;9.752;2023-07-24T12:12:37;8.83;;;6.43;;
5539;SDS011;2792;52.452;9.752;2023-07-24T12:15:04;7.20;;;5.90;;
5539;SDS011;2792;52.452;9.752;2023-07-24T12:17:31;6.77;;;6.07;;
5539;SDS011;2792;52.452;9.752;2023-07-24T12:19:58;9.23;;;7.40;;
5539;SDS011;2792;52.452;9.752;2023-07-24T12:22:24;7.73;;;6.53;;
5539;SDS011;2792;52.452;9.752;2023-07-24T12:24:51;9.03;;;6.73;;
5539;SDS011;2792;52.452;9.752;2023-07-24T12:27:17;7.20;;;6.10;;
5539;SDS011;2792;52.452;9.752;2023-07-24T12:29:45;6.63;;;5.90;;
5539;SDS011;2792;52.452;9.752;2023-07-24T12:32:12;6.60;;;5.90;;
5539;SDS011;2792;52.452;9.752;2023-07-24T12:34:38;8.47;;;5.90;;
5539;SDS011;2792;52.452;9.752;2023-07-24T12:37:05;7.57;;;6.43;;
5539;SDS011;2792;52.452;9.752;2023-07-24T12:39:31;7.07;;;6.13;;
5539;SDS011;2792;52.452;9.752;2023-07-24T12:41:58;6.20;;;5.60;;
5539;SDS011;2792;52.452;9.752;2023-07-24T12:44:24;6.30;;;4.93;;
5539;SDS011;2792;52.452;9.752;2023-07-24T12:46:52;6.17;;;5.07;;
5539;SDS011;2792;52.452;9.752;2023-07-24T12:49:19;7.20;;;6.20;;
5539;SDS011;2792;52.452;9.752;2023-07-24T12:51:46;8.07;;;6.20;;
5539;SDS011;2792;52.452;9.752;2023-07-24T12:54:12;7.13;;;6.40;;
5539;SDS011;2792;52.452;9.752;2023-07-24T12:56:39;9.57;;;6.77;;
5539;SDS011;2792;52.452;9.752;2023-07-24T12:59:05;7.40;;;6.43;;
5539;SDS011;2792;52.452;9.752;2023-07-24T13:01:32;7.20;;;5.93;;
5539;SDS011;2792;52.452;9.752;2023-07-24T13:04:00;6.50;;;5.60;;
5539;SDS011;2792;52.452;9.752;2023-07-24T13:06:26;6.20;;;5.60;;
5539;SDS011;2792;52.452;9.752;2023-07-24T13:08:53;5.47;;;4.80;;
5539;SDS011;2792;52.452;9.752;2023-07-24T13:11:19;5.90;;;5.23;;
5539;SDS011;2792;52.452;9.752;2023-07-24T13:13:46;7.00;;;3.60;;
5539;SDS011;2792;52.452;9.752;2023-07-24T13:16:15;4.27;;;3.87;;
5539;SDS011;2792;52.452;9.752;2023-07-24T13:18:41;4.20;;;3.80;;
5539;SDS011;2792;52.452;9.752;2023-07-24T13:21:09;4.17;;;3.77;;
5539;SDS011;2792;52.452;9.752;2023-07-24T13:23:36;6.27;;;3.93;;
5539;SDS011;2792;52.452;9.752;2023-07-24T13:26:02;4.70;;;3.80;;
5539;SDS011;2792;52.452;9.752;2023-07-24T13:28:29;3.47;;;3.17;;
5539;SDS011;2792;52.452;9.752;2023-07-24T13:30:55;5.33;;;4.07;;
5539;SDS011;2792;52.452;9.752;2023-07-24T13:33:22;3.50;;;3.20;;
5539;SDS011;2792;52.452;9.752;2023-07-24T13:35:48;3.97;;;3.27;;
5539;SDS011;2792;52.452;9.752;2023-07-24T13:38:17;5.80;;;3.90;;
5539;SDS011;2792;52.452;9.752;2023-07-24T13:40:43;3.80;;;3.20;;
5539;SDS011;2792;52.452;9.752;2023-07-24T13:43:10;4.30;;;3.43;;
5539;SDS011;2792;52.452;9.752;2023-07-24T13:45:36;4.50;;;3.33;;
5539;SDS011;2792;52.452;9.752;2023-07-24T13:48:03;4.73;;;2.50;;
5539;SDS011;2792;52.452;9.752;2023-07-24T13:50:30;3.37;;;3.03;;
5539;SDS011;2792;52.452;9.752;2023-07-24T13:52:56;4.40;;;3.10;;
5539;SDS011;2792;52.452;9.752;2023-07-24T13:55:24;3.60;;;3.30;;
5539;SDS011;2792;52.452;9.752;2023-07-24T13:57:51;3.53;;;3.23;;
5539;SDS011;2792;52.452;9.752;2023-07-24T14:00:17;3.70;;;3.20;;
5539;SDS011;2792;52.452;9.752;2023-07-24T14:02:44;5.43;;;4.10;;
5539;SDS011;2792;52.452;9.752;2023-07-24T14:05:10;6.50;;;3.57;;
5539;SDS011;2792;52.452;9.752;2023-07-24T14:07:37;4.20;;;3.20;;
5539;SDS011;2792;52.452;9.752;2023-07-24T14:10:04;5.00;;;4.27;;
5539;SDS011;2792;52.452;9.752;2023-07-24T14:12:32;12.00;;;5.40;;
5539;SDS011;2792;52.452;9.752;2023-07-24T14:14:58;5.57;;;5.00;;
5539;SDS011;2792;52.452;9.752;2023-07-24T14:17:25;5.53;;;5.03;;
5539;SDS011;2792;52.452;9.752;2023-07-24T14:19:51;7.37;;;5.63;;
5539;SDS011;2792;52.452;9.752;2023-07-24T14:22:18;8.57;;;5.70;;
5539;SDS011;2792;52.452;9.752;2023-07-24T14:24:44;8.93;;;5.30;;
5539;SDS011;2792;52.452;9.752;2023-07-24T14:27:11;7.30;;;6.10;;
5539;SDS011;2792;52.452;9.752;2023-07-24T14:29:39;5.90;;;5.30;;
5539;SDS011;2792;52.452;9.752;2023-07-24T14:32:06;6.87;;;6.10;;
5539;SDS011;2792;52.452;9.752;2023-07-24T14:34:33;7.03;;;6.00;;
5539;SDS011;2792;52.452;9.752;2023-07-24T14:36:59;7.10;;;4.83;;
5539;SDS011;2792;52.452;9.752;2023-07-24T14:39:26;5.00;;;4.50;;
5539;SDS011;2792;52.452;9.752;2023-07-24T14:41:52;4.50;;;4.10;;
5539;SDS011;2792;52.452;9.752;2023-07-24T14:44:19;5.57;;;4.50;;
5539;SDS011;2792;52.452;9.752;2023-07-24T14:46:47;4.00;;;3.60;;
5539;SDS011;2792;52.452;9.752;2023-07-24T14:49:13;4.23;;;3.83;;
5539;SDS011;2792;52.452;9.752;2023-07-24T14:51:40;5.70;;;4.53;;
5539;SDS011;2792;52.452;9.752;2023-07-24T14:54:06;4.30;;;3.93;;
5539;SDS011;2792;52.452;9.752;2023-07-24T14:56:33;4.60;;;4.20;;
5539;SDS011;2792;52.452;9.752;2023-07-24T14:58:59;5.23;;;4.73;;
5539;SDS011;2792;52.452;9.752;2023-07-24T15:01:26;5.70;;;5.20;;
5539;SDS011;2792;52.452;9.752;2023-07-24T15:03:55;6.20;;;5.60;;
5539;SDS011;2792;52.452;9.752;2023-07-24T15:06:22;6.70;;;5.70;;
5539;SDS011;2792;52.452;9.752;2023-07-24T15:08:48;7.20;;;6.50;;
5539;SDS011;2792;52.452;9.752;2023-07-24T15:11:18;6.90;;;6.20;;
5539;SDS011;2792;52.452;9.752;2023-07-24T15:13:44;6.37;;;5.73;;